createdAt,value
2022-12-19T00:00:29.526Z,59.73
2022-12-19T00:02:59.041Z,67.03
2022-12-19T00:05:27.142Z,68.30
2022-12-19T00:07:55.136Z,70.60
2022-12-19T00:10:23.453Z,71.70
2022-12-19T00:12:51.426Z,67.17
2022-12-19T00:15:19.453Z,64.40
2022-12-19T00:17:47.454Z,66.47
2022-12-19T00:20:18.576Z,67.30
2022-12-19T00:22:46.814Z,65.93
2022-12-19T00:25:14.899Z,66.40
2022-12-19T00:27:44.082Z,65.83
2022-12-19T00:30:13.377Z,69.03
2022-12-19T00:32:42.425Z,68.20
2022-12-19T00:35:10.821Z,70.87
2022-12-19T00:37:41.463Z,68.60
2022-12-19T00:40:17.768Z,68.77
2022-12-19T00:42:51.702Z,72.37
2022-12-19T00:45:21.593Z,71.50
2022-12-19T00:47:49.595Z,67.00
2022-12-19T00:50:17.725Z,68.73
2022-12-19T00:52:47.133Z,67.03
2022-12-19T00:55:19.288Z,65.57
2022-12-19T00:57:48.218Z,64.90
2022-12-19T01:00:18.318Z,66.47
2022-12-19T01:02:46.919Z,64.33
2022-12-19T01:05:15.166Z,64.60
2022-12-19T01:07:43.251Z,63.57
2022-12-19T01:10:12.778Z,63.60
2022-12-19T01:12:48.398Z,63.87
2022-12-19T01:15:20.543Z,63.23
2022-12-19T01:17:49.000Z,62.07
2022-12-19T01:20:28.893Z,63.30
2022-12-19T01:23:00.128Z,64.70
2022-12-19T01:25:30.229Z,64.33
2022-12-19T01:27:58.869Z,63.77
2022-12-19T01:30:27.654Z,64.33
2022-12-19T01:32:57.967Z,63.77
2022-12-19T01:35:28.950Z,62.73
2022-12-19T01:38:07.661Z,62.80
2022-12-19T01:40:39.240Z,61.57
2022-12-19T01:43:13.826Z,61.77
2022-12-19T01:45:45.870Z,61.80
2022-12-19T01:48:18.124Z,63.67
2022-12-19T01:51:02.084Z,62.43
2022-12-19T01:53:35.752Z,64.30
2022-12-19T01:56:09.936Z,62.47
2022-12-19T01:58:40.986Z,64.13
2022-12-19T02:01:09.308Z,62.07
2022-12-19T02:03:39.058Z,62.80
2022-12-19T02:06:13.442Z,58.57
2022-12-19T02:08:43.322Z,61.90
2022-12-19T02:11:12.867Z,60.87
2022-12-19T02:13:41.733Z,58.63
2022-12-19T02:16:23.443Z,58.93
2022-12-19T02:19:03.992Z,59.87
2022-12-19T02:21:55.115Z,57.87
2022-12-19T02:24:53.672Z,58.10
2022-12-19T02:27:59.265Z,60.13
2022-12-19T02:30:43.485Z,59.40
2022-12-19T02:33:17.430Z,57.73
2022-12-19T02:35:53.503Z,58.87
2022-12-19T02:38:30.313Z,59.33
2022-12-19T02:41:02.648Z,57.63
2022-12-19T02:43:36.638Z,57.00
2022-12-19T02:46:08.567Z,56.10
2022-12-19T02:48:38.379Z,56.00
2022-12-19T02:51:07.161Z,58.67
2022-12-19T02:53:38.489Z,56.07
2022-12-19T02:56:34.789Z,59.80
2022-12-19T02:59:24.782Z,57.60
2022-12-19T03:01:58.970Z,57.70
2022-12-19T03:04:40.847Z,55.50
2022-12-19T03:07:21.358Z,56.70
2022-12-19T03:09:59.950Z,55.13
2022-12-19T03:12:34.246Z,55.83
2022-12-19T03:15:03.696Z,54.80
2022-12-19T03:17:37.405Z,53.80
2022-12-19T03:20:11.437Z,53.97
2022-12-19T03:22:39.753Z,54.37
2022-12-19T03:25:08.699Z,54.83
2022-12-19T03:27:40.593Z,56.57
2022-12-19T03:30:12.556Z,56.83
2022-12-19T03:32:45.247Z,54.27
2022-12-19T03:35:16.905Z,54.17
2022-12-19T03:37:47.427Z,55.47
2022-12-19T03:40:19.000Z,55.43
2022-12-19T03:43:07.572Z,53.30
2022-12-19T03:45:46.424Z,52.63
2022-12-19T03:48:20.844Z,54.87
2022-12-19T03:51:00.009Z,57.00
2022-12-19T03:53:38.122Z,53.20
2022-12-19T03:56:14.389Z,55.63
2022-12-19T03:58:46.754Z,54.93
2022-12-19T04:01:15.672Z,54.00
2022-12-19T04:03:45.592Z,54.37
2022-12-19T04:06:15.658Z,56.07
2022-12-19T04:08:44.298Z,55.43
2022-12-19T04:11:20.883Z,56.53
2022-12-19T04:13:53.457Z,53.67
2022-12-19T04:16:25.047Z,51.10
2022-12-19T04:19:00.155Z,51.77
2022-12-19T04:21:33.757Z,52.47
2022-12-19T04:24:07.765Z,51.13
2022-12-19T04:26:38.166Z,52.57
2022-12-19T04:29:09.118Z,52.63
2022-12-19T04:31:38.065Z,53.00
2022-12-19T04:34:07.524Z,54.30
2022-12-19T04:36:36.058Z,53.70
2022-12-19T04:39:04.777Z,52.97
2022-12-19T04:41:34.517Z,52.77
2022-12-19T04:44:02.836Z,52.97
2022-12-19T04:46:30.945Z,53.33
2022-12-19T04:48:58.989Z,53.20
2022-12-19T04:51:28.563Z,54.40
2022-12-19T04:53:57.391Z,55.77
2022-12-19T04:56:25.479Z,55.30
2022-12-19T04:58:57.902Z,59.47
2022-12-19T05:01:26.343Z,56.40
2022-12-19T05:03:57.564Z,57.00
2022-12-19T05:06:29.552Z,56.83
2022-12-19T05:08:57.567Z,55.97
2022-12-19T05:11:25.631Z,55.87
2022-12-19T05:13:53.684Z,53.83
2022-12-19T05:16:21.744Z,54.93
2022-12-19T05:18:49.920Z,55.50
2022-12-19T05:21:17.898Z,55.33
2022-12-19T05:23:47.358Z,54.20
2022-12-19T05:26:15.409Z,53.13
2022-12-19T05:28:43.436Z,53.77
2022-12-19T05:31:13.390Z,52.20
2022-12-19T05:33:42.658Z,53.80
2022-12-19T05:36:12.072Z,53.17
2022-12-19T05:38:40.328Z,53.13
2022-12-19T05:41:11.029Z,51.43
2022-12-19T05:43:39.160Z,53.43
2022-12-19T05:46:07.904Z,54.40
2022-12-19T05:48:36.750Z,52.67
2022-12-19T05:51:05.109Z,53.67
2022-12-19T05:53:33.175Z,54.00
2022-12-19T05:56:06.133Z,58.27
2022-12-19T05:58:39.629Z,52.80
2022-12-19T06:01:09.521Z,50.87
2022-12-19T06:03:38.258Z,48.47
2022-12-19T06:06:08.550Z,48.70
2022-12-19T06:08:37.094Z,48.27
2022-12-19T06:11:07.099Z,49.13
2022-12-19T06:13:37.243Z,49.43
2022-12-19T06:16:08.130Z,47.27
2022-12-19T06:18:40.433Z,49.70
2022-12-19T06:21:13.158Z,49.23
2022-12-19T06:23:41.271Z,48.73
2022-12-19T06:26:18.264Z,52.70
2022-12-19T06:28:49.459Z,53.50
2022-12-19T06:31:18.867Z,53.47
2022-12-19T06:33:46.924Z,51.80
2022-12-19T06:36:17.990Z,53.00
2022-12-19T06:38:46.076Z,56.47
2022-12-19T06:41:31.686Z,59.70
2022-12-19T06:44:01.983Z,56.07
2022-12-19T06:46:30.779Z,57.60
2022-12-19T06:48:58.996Z,58.37
2022-12-19T06:51:27.482Z,58.23
2022-12-19T06:53:55.669Z,55.40
2022-12-19T06:56:24.823Z,59.60
2022-12-19T06:58:52.994Z,60.30
2022-12-19T07:01:26.347Z,62.30
2022-12-19T07:03:55.931Z,58.87
2022-12-19T07:06:24.705Z,57.67
2022-12-19T07:08:54.127Z,62.10
2022-12-19T07:11:22.276Z,60.47
2022-12-19T07:13:50.288Z,59.50
2022-12-19T07:16:18.395Z,60.90
2022-12-19T07:18:47.954Z,59.67
2022-12-19T07:21:15.993Z,59.77
2022-12-19T07:23:44.993Z,57.27
2022-12-19T07:26:13.501Z,59.93
2022-12-19T07:28:44.508Z,60.30
2022-12-19T07:31:12.744Z,58.83
2022-12-19T07:33:44.899Z,61.77
2022-12-19T07:36:14.263Z,63.53
2022-12-19T07:38:42.300Z,60.60
2022-12-19T07:41:10.333Z,56.77
2022-12-19T07:43:38.312Z,59.00
2022-12-19T07:46:06.674Z,58.90
2022-12-19T07:48:34.667Z,59.10
2022-12-19T07:51:02.777Z,60.80
2022-12-19T07:53:32.689Z,58.27
2022-12-19T07:56:00.790Z,59.77
2022-12-19T07:58:28.841Z,59.30
2022-12-19T08:00:57.792Z,55.73
2022-12-19T08:03:26.437Z,57.43
2022-12-19T08:05:54.677Z,55.80
2022-12-19T08:08:22.648Z,56.37
2022-12-19T08:10:52.008Z,57.20
2022-12-19T08:13:20.022Z,58.23
2022-12-19T08:15:48.031Z,55.10
2022-12-19T08:18:16.095Z,59.27
2022-12-19T08:20:47.113Z,55.43
2022-12-19T08:23:15.125Z,58.20
2022-12-19T08:25:43.224Z,61.40
2022-12-19T08:28:12.619Z,60.00
2022-12-19T08:30:41.332Z,58.30
2022-12-19T08:33:09.631Z,57.87
2022-12-19T08:35:37.791Z,58.17
2022-12-19T08:38:06.669Z,59.47
2022-12-19T08:40:35.384Z,56.87
2022-12-19T08:43:03.353Z,55.27
2022-12-19T08:45:32.748Z,55.47
2022-12-19T08:48:00.732Z,58.07
2022-12-19T08:50:28.784Z,59.40
2022-12-19T08:52:56.939Z,59.33
2022-12-19T08:55:25.551Z,59.47
2022-12-19T08:57:55.888Z,63.87
2022-12-19T09:00:24.885Z,72.57
2022-12-19T09:02:55.317Z,65.50
2022-12-19T09:05:59.558Z,63.07
2022-12-19T09:08:11.787Z,65.37
2022-12-19T09:10:40.361Z,65.63
2022-12-19T09:13:09.572Z,63.47
2022-12-19T09:15:37.670Z,61.77
2022-12-19T09:18:08.048Z,63.03
2022-12-19T09:20:36.129Z,64.47
2022-12-19T09:23:04.244Z,62.17
2022-12-19T09:25:32.360Z,62.10
2022-12-19T09:30:57.113Z,66.60
2022-12-19T09:33:26.934Z,65.13
2022-12-19T09:35:56.649Z,65.73
2022-12-19T09:38:26.496Z,64.50
2022-12-19T09:41:07.510Z,64.77
2022-12-19T09:43:53.388Z,63.20
2022-12-19T09:46:33.364Z,68.37
2022-12-19T09:49:03.341Z,64.57
2022-12-19T09:51:38.398Z,66.30
2022-12-19T09:54:13.579Z,65.90
2022-12-19T09:56:46.240Z,68.23
2022-12-19T09:59:22.599Z,65.53
2022-12-19T10:01:59.152Z,63.37
2022-12-19T10:04:33.238Z,63.83
2022-12-19T10:07:20.590Z,64.93
2022-12-19T10:12:34.643Z,61.27
2022-12-19T10:12:58.404Z,63.37
2022-12-19T10:15:38.972Z,59.90
2022-12-19T10:18:29.528Z,55.43
2022-12-19T10:21:07.171Z,56.17
2022-12-19T10:24:07.774Z,56.57
2022-12-19T10:26:44.400Z,59.00
2022-12-19T10:29:46.683Z,58.10
2022-12-19T10:32:22.497Z,57.80
2022-12-19T10:34:52.182Z,56.67
2022-12-19T10:37:32.754Z,54.67
2022-12-19T10:40:16.155Z,53.90
2022-12-19T10:43:01.385Z,53.23
2022-12-19T10:45:47.050Z,51.67
2022-12-19T10:48:20.839Z,53.20
2022-12-19T10:50:52.940Z,55.80
2022-12-19T10:53:29.917Z,56.97
2022-12-19T10:56:02.854Z,57.00
2022-12-19T10:58:35.181Z,56.57
2022-12-19T11:01:15.642Z,53.40
2022-12-19T11:03:46.959Z,53.40
2022-12-19T11:06:43.030Z,55.93
2022-12-19T11:09:25.591Z,55.90
2022-12-19T11:16:09.568Z,52.37
2022-12-19T11:19:23.334Z,53.60
2022-12-19T11:27:29.572Z,58.40
2022-12-19T11:29:35.213Z,54.47
2022-12-19T11:29:38.650Z,54.93
2022-12-19T11:30:43.940Z,54.03
2022-12-19T11:30:44.122Z,55.23
2022-12-19T11:34:38.489Z,55.00
2022-12-19T11:37:17.990Z,52.27
2022-12-19T11:39:49.605Z,51.97
2022-12-19T11:42:26.041Z,53.23
2022-12-19T11:45:01.550Z,53.40
2022-12-19T11:47:36.960Z,53.07
2022-12-19T11:50:14.595Z,53.13
2022-12-19T11:53:11.486Z,51.57
2022-12-19T11:55:45.473Z,52.67
2022-12-19T11:58:15.376Z,50.93
2022-12-19T12:00:52.337Z,49.03
2022-12-19T12:04:03.237Z,52.03
2022-12-19T12:06:35.420Z,48.40
2022-12-19T12:12:44.220Z,50.33
2022-12-19T12:21:09.249Z,46.87
2022-12-19T12:29:05.419Z,47.20
2022-12-19T12:31:00.803Z,45.30
2022-12-19T12:31:25.893Z,46.90
2022-12-19T12:31:49.679Z,46.97
2022-12-19T12:31:51.729Z,50.67
2022-12-19T12:31:52.225Z,45.33
2022-12-19T12:35:51.511Z,45.07
2022-12-19T12:39:29.761Z,46.30
2022-12-19T12:42:12.649Z,46.87
2022-12-19T12:44:45.949Z,46.23
2022-12-19T12:47:20.603Z,46.30
2022-12-19T12:49:54.428Z,48.13
2022-12-19T12:52:31.205Z,45.07
2022-12-19T12:54:59.838Z,46.87
2022-12-19T12:57:37.748Z,50.23
2022-12-19T13:00:22.490Z,47.87
2022-12-19T13:02:57.052Z,50.83
2022-12-19T13:05:35.630Z,48.10
2022-12-19T13:08:23.938Z,50.40
2022-12-19T13:10:57.626Z,51.50
2022-12-19T13:13:54.008Z,54.10
2022-12-19T13:16:54.284Z,58.03
2022-12-19T13:19:28.727Z,54.37
2022-12-19T13:22:17.974Z,54.63
2022-12-19T13:24:47.443Z,56.63
2022-12-19T13:27:34.913Z,56.47
2022-12-19T13:30:21.423Z,55.87
2022-12-19T13:33:10.281Z,52.20
2022-12-19T13:39:17.496Z,56.00
2022-12-19T13:40:00.347Z,55.57
2022-12-19T13:42:02.708Z,54.80
2022-12-19T13:44:33.129Z,56.23
2022-12-19T13:47:01.203Z,55.50
2022-12-19T13:49:35.139Z,55.43
2022-12-19T13:52:06.277Z,56.50
2022-12-19T13:54:45.741Z,55.97
2022-12-19T13:57:22.437Z,56.23
2022-12-19T14:00:00.177Z,55.47
2022-12-19T14:02:34.876Z,59.67
2022-12-19T14:05:33.808Z,56.23
2022-12-19T14:08:19.208Z,57.13
2022-12-19T14:11:40.923Z,56.20
2022-12-19T14:14:10.158Z,57.87
2022-12-19T14:16:45.784Z,56.73
2022-12-19T14:19:24.456Z,55.10
2022-12-19T14:22:06.855Z,56.00
2022-12-19T14:24:42.615Z,55.33
2022-12-19T14:28:18.323Z,53.23
2022-12-19T14:30:29.765Z,62.13
2022-12-19T14:33:43.625Z,59.23
2022-12-19T14:36:06.443Z,55.57
2022-12-19T14:39:25.330Z,53.63
2022-12-19T14:42:01.477Z,57.30
2022-12-19T14:52:11.446Z,55.00
2022-12-19T14:53:52.475Z,55.93
2022-12-19T14:54:23.410Z,55.93
2022-12-19T14:54:28.277Z,55.27
2022-12-19T14:59:02.507Z,56.67
2022-12-19T15:01:34.153Z,57.90
2022-12-19T15:04:52.764Z,56.57
2022-12-19T15:07:10.036Z,58.40
2022-12-19T15:11:05.551Z,58.27
2022-12-19T15:14:48.564Z,61.07
2022-12-19T15:16:00.573Z,59.00
2022-12-19T15:18:39.213Z,62.23
2022-12-19T15:21:09.633Z,69.30
2022-12-19T15:23:37.817Z,76.43
2022-12-19T15:26:08.672Z,80.40
2022-12-19T15:28:43.195Z,80.67
2022-12-19T15:31:24.551Z,80.40
2022-12-19T15:34:33.515Z,79.73
2022-12-19T15:36:40.659Z,74.23
2022-12-19T15:39:08.709Z,77.93
2022-12-19T15:41:37.133Z,75.53
2022-12-19T15:44:10.000Z,76.27
2022-12-19T15:46:44.744Z,72.93
2022-12-19T15:49:18.052Z,75.23
2022-12-19T15:51:46.371Z,78.77
2022-12-19T15:54:47.153Z,83.83
2022-12-19T15:57:02.956Z,81.00
2022-12-19T15:59:38.012Z,79.60
2022-12-19T16:02:17.547Z,81.80
2022-12-19T16:04:47.703Z,82.23
2022-12-19T16:07:18.714Z,80.43
2022-12-19T16:09:47.450Z,80.80
2022-12-19T16:12:17.053Z,85.13
2022-12-19T16:14:45.910Z,85.53
2022-12-19T16:17:20.440Z,81.03
2022-12-19T16:19:48.574Z,83.43
2022-12-19T16:22:19.540Z,84.27
2022-12-19T16:24:47.722Z,80.27
2022-12-19T16:27:22.951Z,80.43
2022-12-19T16:29:51.318Z,84.17
2022-12-19T16:32:23.106Z,81.67
2022-12-19T16:34:51.721Z,83.43
2022-12-19T16:37:19.852Z,86.00
2022-12-19T16:39:47.933Z,84.13
2022-12-19T16:42:17.374Z,83.37
2022-12-19T16:44:48.057Z,83.97
2022-12-19T16:47:18.347Z,83.53
2022-12-19T16:49:47.810Z,86.47
2022-12-19T16:52:16.095Z,87.23
2022-12-19T16:54:44.197Z,82.67
2022-12-19T16:57:20.344Z,83.50
2022-12-19T16:59:49.729Z,84.60
2022-12-19T17:02:41.742Z,87.27
2022-12-19T17:05:22.075Z,86.60
2022-12-19T17:07:50.841Z,87.40
2022-12-19T17:10:24.361Z,86.20
2022-12-19T17:12:55.587Z,85.97
2022-12-19T17:15:28.245Z,85.50
2022-12-19T17:17:59.335Z,90.30
2022-12-19T17:20:33.368Z,89.27
2022-12-19T17:23:01.422Z,86.40
2022-12-19T17:25:29.540Z,90.73
2022-12-19T17:27:57.902Z,94.27
2022-12-19T17:30:26.059Z,91.57
2022-12-19T17:32:56.777Z,89.47
2022-12-19T17:35:28.953Z,86.97
2022-12-19T17:37:59.041Z,86.93
2022-12-19T17:40:29.525Z,90.80
2022-12-19T17:42:58.747Z,94.10
2022-12-19T17:45:29.277Z,92.80
2022-12-19T17:48:02.881Z,89.50
2022-12-19T17:50:35.171Z,89.83
2022-12-19T17:53:05.109Z,89.33
2022-12-19T17:55:33.778Z,87.83
2022-12-19T17:58:01.805Z,85.10
2022-12-19T18:00:33.161Z,86.20
2022-12-19T18:03:05.999Z,87.17
2022-12-19T18:05:36.945Z,87.20
2022-12-19T18:08:20.117Z,83.43
2022-12-19T18:10:48.270Z,86.83
2022-12-19T18:13:16.411Z,83.87
2022-12-19T18:15:44.699Z,84.63
2022-12-19T18:18:15.184Z,88.73
2022-12-19T18:20:44.507Z,86.77
2022-12-19T18:23:19.465Z,88.13
2022-12-19T18:25:47.562Z,89.27
2022-12-19T18:28:16.579Z,87.50
2022-12-19T18:30:45.676Z,86.47
2022-12-19T18:33:17.709Z,89.80
2022-12-19T18:35:48.625Z,88.43
2022-12-19T18:38:20.317Z,89.13
2022-12-19T18:40:49.327Z,88.23
2022-12-19T18:43:18.183Z,88.23
2022-12-19T18:45:48.502Z,87.10
2022-12-19T18:48:21.989Z,84.10
2022-12-19T18:50:50.084Z,83.67
2022-12-19T18:53:26.499Z,81.97
2022-12-19T18:56:02.666Z,85.53
2022-12-19T18:58:30.864Z,93.93
2022-12-19T19:01:02.982Z,92.77
2022-12-19T19:03:33.911Z,89.07
2022-12-19T19:06:02.102Z,88.50
2022-12-19T19:08:35.077Z,86.47
2022-12-19T19:11:20.372Z,95.97
2022-12-19T19:13:48.449Z,85.23
2022-12-19T19:16:19.271Z,86.10
2022-12-19T19:18:50.064Z,90.70
2022-12-19T19:21:19.150Z,88.47
2022-12-19T19:23:51.623Z,86.77
2022-12-19T19:26:19.704Z,86.93
2022-12-19T19:28:52.225Z,83.70
2022-12-19T19:31:23.448Z,85.67
2022-12-19T19:33:55.995Z,81.90
2022-12-19T19:36:26.912Z,87.77
2022-12-19T19:38:58.593Z,88.60
2022-12-19T19:41:29.832Z,89.87
2022-12-19T19:43:58.952Z,87.87
2022-12-19T19:46:27.345Z,86.13
2022-12-19T19:48:55.925Z,83.27
2022-12-19T19:51:24.011Z,84.63
2022-12-19T19:53:52.221Z,88.03
2022-12-19T19:56:21.602Z,84.90
2022-12-19T19:58:49.812Z,87.03
2022-12-19T20:01:18.042Z,94.30
2022-12-19T20:03:46.462Z,112.10
2022-12-19T20:06:17.910Z,105.53
2022-12-19T20:08:47.516Z,105.73
2022-12-19T20:11:15.624Z,111.17
2022-12-19T20:13:45.252Z,93.73
2022-12-19T20:16:16.599Z,95.07
2022-12-19T20:18:49.812Z,102.27
2022-12-19T20:21:18.720Z,98.73
2022-12-19T20:23:47.074Z,93.20
2022-12-19T20:26:16.379Z,90.90
2022-12-19T20:28:49.477Z,92.57
2022-12-19T20:31:19.175Z,92.57
2022-12-19T20:33:48.558Z,100.83
2022-12-19T20:36:17.014Z,97.37
2022-12-19T20:38:45.240Z,98.30
2022-12-19T20:41:13.422Z,94.33
2022-12-19T20:43:41.825Z,89.77
2022-12-19T20:46:13.955Z,93.50
2022-12-19T20:48:42.997Z,97.23
2022-12-19T20:51:11.162Z,96.17
2022-12-19T20:53:41.644Z,100.20
2022-12-19T20:56:14.017Z,102.73
2022-12-19T20:58:42.068Z,104.83
2022-12-19T21:01:14.003Z,109.57
2022-12-19T21:03:42.883Z,108.33
2022-12-19T21:06:13.562Z,119.17
2022-12-19T21:08:43.427Z,114.60
2022-12-19T21:11:12.489Z,110.23
2022-12-19T21:13:41.995Z,106.47
2022-12-19T21:16:14.640Z,109.80
2022-12-19T21:18:44.944Z,110.97
2022-12-19T21:21:15.648Z,119.53
2022-12-19T21:23:44.872Z,114.93
2022-12-19T21:26:13.347Z,110.93
2022-12-19T21:28:41.793Z,122.23
2022-12-19T21:31:16.331Z,114.17
2022-12-19T21:33:45.318Z,120.73
2022-12-19T21:36:16.715Z,104.80
2022-12-19T21:38:44.700Z,117.90
2022-12-19T21:41:18.717Z,105.67
2022-12-19T21:43:48.914Z,96.77
2022-12-19T21:46:19.180Z,96.70
2022-12-19T21:48:48.940Z,103.47
2022-12-19T21:51:18.608Z,98.97
2022-12-19T21:53:46.991Z,118.83
2022-12-19T21:56:23.783Z,111.67
2022-12-19T21:58:52.876Z,91.13
2022-12-19T22:01:23.215Z,109.40
2022-12-19T22:03:52.328Z,111.20
2022-12-19T22:06:27.958Z,113.00
2022-12-19T22:08:57.097Z,113.43
2022-12-19T22:11:25.873Z,117.27
2022-12-19T22:13:54.475Z,112.73
2022-12-19T22:16:24.005Z,121.10
2022-12-19T22:18:53.158Z,121.00
2022-12-19T22:21:21.690Z,121.83
2022-12-19T22:23:49.832Z,122.40
2022-12-19T22:26:20.643Z,118.57
2022-12-19T22:28:50.736Z,121.70
2022-12-19T22:31:21.400Z,122.87
2022-12-19T22:33:52.420Z,111.17
2022-12-19T22:36:27.617Z,112.53
2022-12-19T22:38:57.859Z,104.73
2022-12-19T22:41:26.491Z,107.13
2022-12-19T22:43:55.308Z,108.07
2022-12-19T22:46:26.324Z,109.87
2022-12-19T22:48:57.429Z,111.97
2022-12-19T22:51:26.505Z,110.47
2022-12-19T22:53:54.675Z,113.97
2022-12-19T22:56:24.538Z,112.97
2022-12-19T22:58:54.485Z,113.17
2022-12-19T23:01:24.879Z,108.73
2022-12-19T23:03:57.189Z,82.60
2022-12-19T23:06:27.545Z,109.23
2022-12-19T23:08:55.781Z,106.70
2022-12-19T23:11:27.182Z,76.67
2022-12-19T23:13:55.584Z,74.23
2022-12-19T23:16:23.673Z,69.70
2022-12-19T23:18:51.833Z,74.80
2022-12-19T23:21:24.031Z,72.70
2022-12-19T23:23:54.771Z,67.20
2022-12-19T23:26:25.116Z,66.80
2022-12-19T23:28:55.158Z,62.23
2022-12-19T23:31:23.663Z,67.90
2022-12-19T23:33:51.987Z,72.57
2022-12-19T23:36:45.312Z,72.63
2022-12-19T23:39:10.568Z,65.30
2022-12-19T23:41:39.102Z,69.93
2022-12-19T23:44:07.436Z,63.50
2022-12-19T23:46:35.455Z,60.70
2022-12-19T23:49:03.563Z,63.23
2022-12-19T23:51:33.365Z,65.87
2022-12-19T23:54:01.408Z,68.50
2022-12-19T23:56:31.470Z,70.53
2022-12-19T23:59:00.062Z,71.83
